sensor_id;sensor_type;location;lat;lon;timestamp;pressure;altitude;pressure_sealevel;temperature;humidity
42601;BME280;28229;48.856;9.088;2023-10-19T00:02:08;96347.84;;;10.52;100.00
42601;BME280;28229;48.856;9.088;2023-10-19T00:04:36;96343.63;;;10.56;100.00
42601;BME280;28229;48.856;9.088;2023-10-19T00:07:03;96337.38;;;10.62;100.00
42601;BME280;28229;48.856;9.088;2023-10-19T00:09:34;96334.19;;;10.65;100.00
42601;BME280;28229;48.856;9.088;2023-10-19T00:12:04;96328.16;;;10.65;100.00
42601;BME280;28229;48.856;9.088;2023-10-19T00:14:35;96328.97;;;10.71;100.00
42601;BME280;28229;48.856;9.088;2023-10-19T00:17:02;96329.47;;;10.67;100.00
42601;BME280;28229;48.856;9.088;2023-10-19T00:19:37;96324.78;;;10.70;100.00
42601;BME280;28229;48.856;9.088;2023-10-19T00:22:08;96326.88;;;10.73;100.00
42601;BME280;28229;48.856;9.088;2023-10-19T00:24:35;96336.09;;;10.75;100.00
42601;BME280;28229;48.856;9.088;2023-10-19T00:27:01;96324.25;;;10.78;100.00
42601;BME280;28229;48.856;9.088;2023-10-19T00:29:36;96326.38;;;10.76;100.00
42601;BME280;28229;48.856;9.088;2023-10-19T00:32:15;96334.75;;;10.73;100.00
42601;BME280;28229;48.856;9.088;2023-10-19T00:34:41;96335.03;;;10.76;100.00
42601;BME280;28229;48.856;9.088;2023-10-19T00:37:18;96331.63;;;10.76;100.00
42601;BME280;28229;48.856;9.088;2023-10-19T00:39:53;96337.66;;;10.76;100.00
42601;BME280;28229;48.856;9.088;2023-10-19T00:42:21;96323.72;;;10.71;100.00
42601;BME280;28229;48.856;9.088;2023-10-19T00:44:53;96305.81;;;10.73;100.00
42601;BME280;28229;48.856;9.088;2023-10-19T00:47:27;96297.97;;;10.78;100.00
42601;BME280;28229;48.856;9.088;2023-10-19T00:50:01;96289.03;;;10.79;100.00
42601;BME280;28229;48.856;9.088;2023-10-19T00:52:31;96291.69;;;10.84;100.00
42601;BME280;28229;48.856;9.088;2023-10-19T00:54:58;96289.06;;;10.84;100.00
42601;BME280;28229;48.856;9.088;2023-10-19T00:57:25;96280.91;;;10.85;100.00
42601;BME280;28229;48.856;9.088;2023-10-19T01:00:02;96279.31;;;10.90;100.00
42601;BME280;28229;48.856;9.088;2023-10-19T01:02:38;96283.81;;;10.89;100.00
42601;BME280;28229;48.856;9.088;2023-10-19T01:05:12;96281.69;;;10.91;100.00
42601;BME280;28229;48.856;9.088;2023-10-19T01:07:41;96282.75;;;10.95;100.00
42601;BME280;28229;48.856;9.088;2023-10-19T01:10:08;96280.66;;;10.97;100.00
42601;BME280;28229;48.856;9.088;2023-10-19T01:12:37;96278.53;;;10.99;100.00
42601;BME280;28229;48.856;9.088;2023-10-19T01:15:14;96277.25;;;11.02;100.00
42601;BME280;28229;48.856;9.088;2023-10-19T01:17:47;96277.53;;;11.05;100.00
42601;BME280;28229;48.856;9.088;2023-10-19T01:20:20;96281.72;;;11.12;100.00
42601;BME280;28229;48.856;9.088;2023-10-19T01:22:53;96271.19;;;11.12;100.00
42601;BME280;28229;48.856;9.088;2023-10-19T01:25:28;96263.03;;;11.13;100.00
42601;BME280;28229;48.856;9.088;2023-10-19T01:28:10;96263.56;;;11.15;100.00
42601;BME280;28229;48.856;9.088;2023-10-19T01:30:37;96257.53;;;11.20;100.00
42601;BME280;28229;48.856;9.088;2023-10-19T01:33:04;96255.16;;;11.23;100.00
42601;BME280;28229;48.856;9.088;2023-10-19T01:35:39;96249.09;;;11.28;100.00
42601;BME280;28229;48.856;9.088;2023-10-19T01:38:24;96245.94;;;11.26;100.00
42601;BME280;28229;48.856;9.088;2023-10-19T01:40:51;96242.28;;;11.32;100.00
42601;BME280;28229;48.856;9.088;2023-10-19T01:43:17;96237.00;;;11.37;100.00
42601;BME280;28229;48.856;9.088;2023-10-19T01:45:47;96242.53;;;11.41;100.00
42601;BME280;28229;48.856;9.088;2023-10-19T01:48:14;96244.63;;;11.39;100.00
42601;BME280;28229;48.856;9.088;2023-10-19T01:50:42;96239.63;;;11.42;100.00
42601;BME280;28229;48.856;9.088;2023-10-19T01:53:08;96243.31;;;11.47;100.00
42601;BME280;28229;48.856;9.088;2023-10-19T01:55:42;96232.78;;;11.52;100.00
42601;BME280;28229;48.856;9.088;2023-10-19T01:58:09;96237.81;;;11.48;100.00
42601;BME280;28229;48.856;9.088;2023-10-19T02:00:36;96231.19;;;11.46;100.00
42601;BME280;28229;48.856;9.088;2023-10-19T02:03:08;96223.56;;;11.49;100.00
42601;BME280;28229;48.856;9.088;2023-10-19T02:05:34;96222.78;;;11.49;100.00
42601;BME280;28229;48.856;9.088;2023-10-19T02:08:08;96226.19;;;11.54;100.00
42601;BME280;28229;48.856;9.088;2023-10-19T02:10:35;96223.03;;;11.52;100.00
42601;BME280;28229;48.856;9.088;2023-10-19T02:13:08;96225.94;;;11.46;100.00
42601;BME280;28229;48.856;9.088;2023-10-19T02:15:34;96222.78;;;11.54;100.00
42601;BME280;28229;48.856;9.088;2023-10-19T02:18:02;96217.50;;;11.49;100.00
42601;BME280;28229;48.856;9.088;2023-10-19T02:20:30;96222.78;;;11.49;100.00
42601;BME280;28229;48.856;9.088;2023-10-19T02:22:57;96209.09;;;11.47;100.00
42601;BME280;28229;48.856;9.088;2023-10-19T02:25:24;96204.09;;;11.45;100.00
42601;BME280;28229;48.856;9.088;2023-10-19T02:27:54;96194.84;;;11.48;100.00
42601;BME280;28229;48.856;9.088;2023-10-19T02:30:20;96199.09;;;11.49;100.00
42601;BME280;28229;48.856;9.088;2023-10-19T02:32:47;96197.78;;;11.46;100.00
42601;BME280;28229;48.856;9.088;2023-10-19T02:35:14;96194.84;;;11.48;100.00
42601;BME280;28229;48.856;9.088;2023-10-19T02:37:40;96203.81;;;11.47;100.00
42601;BME280;28229;48.856;9.088;2023-10-19T02:40:07;96193.81;;;11.54;100.00
42601;BME280;28229;48.856;9.088;2023-10-19T02:42:46;96197.47;;;11.53;100.00
42601;BME280;28229;48.856;9.088;2023-10-19T02:45:19;96194.06;;;11.57;100.00
42601;BME280;28229;48.856;9.088;2023-10-19T02:47:46;96195.91;;;11.57;100.00
42601;BME280;28229;48.856;9.088;2023-10-19T02:50:12;96199.06;;;11.64;100.00
42601;BME280;28229;48.856;9.088;2023-10-19T02:52:49;96202.22;;;11.76;100.00
42601;BME280;28229;48.856;9.088;2023-10-19T02:55:15;96192.13;;;11.89;100.00
42601;BME280;28229;48.856;9.088;2023-10-19T02:57:46;96176.88;;;11.96;100.00
42601;BME280;28229;48.856;9.088;2023-10-19T03:00:12;96178.44;;;11.97;100.00
42601;BME280;28229;48.856;9.088;2023-10-19T03:02:41;96187.38;;;12.06;100.00
42601;BME280;28229;48.856;9.088;2023-10-19T03:05:07;96177.91;;;12.05;100.00
42601;BME280;28229;48.856;9.088;2023-10-19T03:07:45;96178.97;;;12.04;100.00
42601;BME280;28229;48.856;9.088;2023-10-19T03:10:12;96174.72;;;12.03;100.00
42601;BME280;28229;48.856;9.088;2023-10-19T03:12:50;96166.88;;;11.98;100.00
42601;BME280;28229;48.856;9.088;2023-10-19T03:15:17;96164.75;;;12.00;100.00
42601;BME280;28229;48.856;9.088;2023-10-19T03:17:49;96157.91;;;11.94;100.00
42601;BME280;28229;48.856;9.088;2023-10-19T03:20:16;96158.69;;;11.89;100.00
42601;BME280;28229;48.856;9.088;2023-10-19T03:22:49;96161.63;;;11.93;100.00
42601;BME280;28229;48.856;9.088;2023-10-19T03:25:15;96157.94;;;11.84;100.00
42601;BME280;28229;48.856;9.088;2023-10-19T03:28:00;96156.88;;;11.79;100.00
42601;BME280;28229;48.856;9.088;2023-10-19T03:30:37;96156.59;;;11.81;100.00
42601;BME280;28229;48.856;9.088;2023-10-19T03:33:07;96158.44;;;11.86;100.00
42601;BME280;28229;48.856;9.088;2023-10-19T03:35:38;96157.66;;;11.90;100.00
42601;BME280;28229;48.856;9.088;2023-10-19T03:38:08;96152.09;;;11.87;100.00
42601;BME280;28229;48.856;9.088;2023-10-19T03:40:41;96156.31;;;11.88;100.00
42601;BME280;28229;48.856;9.088;2023-10-19T03:43:07;96151.56;;;11.90;100.00
42601;BME280;28229;48.856;9.088;2023-10-19T03:45:48;96148.94;;;11.85;100.00
42601;BME280;28229;48.856;9.088;2023-10-19T03:48:19;96140.53;;;11.82;100.00
42601;BME280;28229;48.856;9.088;2023-10-19T03:51:00;96141.34;;;11.73;100.00
42601;BME280;28229;48.856;9.088;2023-10-19T03:53:28;96130.03;;;11.72;100.00
42601;BME280;28229;48.856;9.088;2023-10-19T03:55:54;96134.78;;;11.65;100.00
42601;BME280;28229;48.856;9.088;2023-10-19T03:58:21;96135.28;;;11.67;100.00
42601;BME280;28229;48.856;9.088;2023-10-19T04:00:47;96135.84;;;11.64;100.00
42601;BME280;28229;48.856;9.088;2023-10-19T04:03:17;96125.59;;;11.62;100.00
42601;BME280;28229;48.856;9.088;2023-10-19T04:05:44;96115.31;;;11.61;100.00
42601;BME280;28229;48.856;9.088;2023-10-19T04:08:13;96114.78;;;11.59;100.00
42601;BME280;28229;48.856;9.088;2023-10-19T04:10:46;96119.28;;;11.53;100.00
42601;BME280;28229;48.856;9.088;2023-10-19T04:13:33;96112.97;;;11.49;100.00
42601;BME280;28229;48.856;9.088;2023-10-19T04:15:59;96107.97;;;11.42;100.00
42601;BME280;28229;48.856;9.088;2023-10-19T04:18:25;96103.25;;;11.39;100.00
42601;BME280;28229;48.856;9.088;2023-10-19T04:20:51;96091.97;;;11.29;100.00
42601;BME280;28229;48.856;9.088;2023-10-19T04:23:21;96095.88;;;11.36;100.00
42601;BME280;28229;48.856;9.088;2023-10-19T04:25:48;96090.88;;;11.45;100.00
42601;BME280;28229;48.856;9.088;2023-10-19T04:28:14;96088.47;;;11.54;100.00
42601;BME280;28229;48.856;9.088;2023-10-19T04:30:40;96084.25;;;11.48;100.00
42601;BME280;28229;48.856;9.088;2023-10-19T04:33:06;96080.31;;;11.50;100.00
42601;BME280;28229;48.856;9.088;2023-10-19T04:35:36;96079.00;;;11.42;100.00
42601;BME280;28229;48.856;9.088;2023-10-19T04:38:04;96080.59;;;11.49;100.00
42601;BME280;28229;48.856;9.088;2023-10-19T04:40:32;96083.72;;;11.51;100.00
42601;BME280;28229;48.856;9.088;2023-10-19T04:42:58;96084.81;;;11.50;100.00
42601;BME280;28229;48.856;9.088;2023-10-19T04:45:25;96086.91;;;11.48;100.00
42601;BME280;28229;48.856;9.088;2023-10-19T04:47:52;96082.69;;;11.47;100.00
42601;BME280;28229;48.856;9.088;2023-10-19T04:50:18;96084.81;;;11.45;100.00
42601;BME280;28229;48.856;9.088;2023-10-19T04:52:44;96085.38;;;11.31;100.00
42601;BME280;28229;48.856;9.088;2023-10-19T04:55:14;96076.97;;;11.19;100.00
42601;BME280;28229;48.856;9.088;2023-10-19T04:57:42;96076.19;;;11.18;100.00
42601;BME280;28229;48.856;9.088;2023-10-19T05:00:09;96072.78;;;11.13;100.00
42601;BME280;28229;48.856;9.088;2023-10-19T05:02:39;96078.03;;;11.13;100.00
42601;BME280;28229;48.856;9.088;2023-10-19T05:05:07;96066.19;;;11.05;100.00
42601;BME280;28229;48.856;9.088;2023-10-19T05:14:33;96072.50;;;11.14;100.00
42601;BME280;28229;48.856;9.088;2023-10-19T05:16:59;96065.13;;;11.16;100.00
42601;BME280;28229;48.856;9.088;2023-10-19T05:19:25;96070.66;;;11.15;100.00
42601;BME280;28229;48.856;9.088;2023-10-19T05:21:51;96072.78;;;11.02;100.00
42601;BME280;28229;48.856;9.088;2023-10-19T05:24:18;96070.16;;;11.02;100.00
42601;BME280;28229;48.856;9.088;2023-10-19T05:26:44;96075.94;;;11.04;100.00
42601;BME280;28229;48.856;9.088;2023-10-19T05:29:12;96075.94;;;11.04;100.00
42601;BME280;28229;48.856;9.088;2023-10-19T05:31:41;96077.53;;;11.05;100.00
42601;BME280;28229;48.856;9.088;2023-10-19T05:34:07;96087.53;;;11.03;100.00
42601;BME280;28229;48.856;9.088;2023-10-19T05:36:34;96078.81;;;11.03;100.00
42601;BME280;28229;48.856;9.088;2023-10-19T05:39:00;96083.06;;;11.04;100.00
42601;BME280;28229;48.856;9.088;2023-10-19T05:41:26;96080.41;;;11.04;100.00
42601;BME280;28229;48.856;9.088;2023-10-19T05:44:01;96097.00;;;11.04;100.00
42601;BME280;28229;48.856;9.088;2023-10-19T05:46:30;96089.09;;;11.10;100.00
42601;BME280;28229;48.856;9.088;2023-10-19T05:48:56;96099.63;;;11.10;100.00
42601;BME280;28229;48.856;9.088;2023-10-19T05:51:22;96095.94;;;11.11;100.00
42601;BME280;28229;48.856;9.088;2023-10-19T05:53:53;96089.88;;;11.10;100.00
42601;BME280;28229;48.856;9.088;2023-10-19T05:56:20;96089.88;;;11.10;100.00
42601;BME280;28229;48.856;9.088;2023-10-19T05:58:47;96094.59;;;11.13;100.00
42601;BME280;28229;48.856;9.088;2023-10-19T06:01:16;96090.59;;;11.47;100.00
42601;BME280;28229;48.856;9.088;2023-10-19T06:03:43;96091.09;;;11.59;100.00
42601;BME280;28229;48.856;9.088;2023-10-19T06:06:10;96094.75;;;11.63;100.00
42601;BME280;28229;48.856;9.088;2023-10-19T06:08:37;96096.88;;;11.66;100.00
42601;BME280;28229;48.856;9.088;2023-10-19T06:11:05;96098.69;;;11.71;100.00
42601;BME280;28229;48.856;9.088;2023-10-19T06:13:32;96104.69;;;11.81;100.00
42601;BME280;28229;48.856;9.088;2023-10-19T06:15:58;96103.63;;;11.88;100.00
42601;BME280;28229;48.856;9.088;2023-10-19T06:18:24;96100.72;;;11.89;100.00
42601;BME280;28229;48.856;9.088;2023-10-19T06:20:51;96105.47;;;11.92;100.00
42601;BME280;28229;48.856;9.088;2023-10-19T06:23:17;96103.63;;;11.88;100.00
42601;BME280;28229;48.856;9.088;2023-10-19T06:25:44;96102.03;;;11.87;100.00
42601;BME280;28229;48.856;9.088;2023-10-19T06:28:13;96104.16;;;11.85;100.00
42601;BME280;28229;48.856;9.088;2023-10-19T06:30:39;96097.03;;;11.85;100.00
42601;BME280;28229;48.856;9.088;2023-10-19T06:33:08;96100.47;;;11.86;100.00
42601;BME280;28229;48.856;9.088;2023-10-19T06:35:34;96098.09;;;11.84;100.00
42601;BME280;28229;48.856;9.088;2023-10-19T06:38:03;96098.63;;;11.81;100.00
42601;BME280;28229;48.856;9.088;2023-10-19T06:40:30;96106.25;;;11.88;100.00
42601;BME280;28229;48.856;9.088;2023-10-19T06:42:59;96103.13;;;11.91;100.00
42601;BME280;28229;48.856;9.088;2023-10-19T06:45:26;96098.63;;;11.91;100.00
42601;BME280;28229;48.856;9.088;2023-10-19T06:47:52;96095.22;;;11.91;100.00
42601;BME280;28229;48.856;9.088;2023-10-19T06:50:22;96098.38;;;11.93;100.00
42601;BME280;28229;48.856;9.088;2023-10-19T06:52:49;96104.66;;;11.97;100.00
42601;BME280;28229;48.856;9.088;2023-10-19T06:55:17;96097.28;;;11.94;100.00
42601;BME280;28229;48.856;9.088;2023-10-19T06:57:48;96097.28;;;11.94;100.00
42601;BME280;28229;48.856;9.088;2023-10-19T07:00:17;96100.16;;;11.97;100.00
42601;BME280;28229;48.856;9.088;2023-10-19T07:02:47;96092.75;;;12.05;100.00
42601;BME280;28229;48.856;9.088;2023-10-19T07:05:15;96080.38;;;12.05;100.00
42601;BME280;28229;48.856;9.088;2023-10-19T07:07:46;96099.63;;;12.06;100.00
42601;BME280;28229;48.856;9.088;2023-10-19T07:10:13;96087.19;;;12.11;100.00
42601;BME280;28229;48.856;9.088;2023-10-19T07:12:43;96090.41;;;12.03;100.00
42601;BME280;28229;48.856;9.088;2023-10-19T07:15:09;96091.97;;;12.04;100.00
42601;BME280;28229;48.856;9.088;2023-10-19T07:17:43;96084.31;;;12.08;100.00
42601;BME280;28229;48.856;9.088;2023-10-19T07:20:11;96086.19;;;12.07;100.00
42601;BME280;28229;48.856;9.088;2023-10-19T07:22:55;96089.31;;;12.09;100.00
42601;BME280;28229;48.856;9.088;2023-10-19T07:25:23;96083.03;;;12.05;100.00
42601;BME280;28229;48.856;9.088;2023-10-19T07:27:52;96091.97;;;12.09;100.00
42601;BME280;28229;48.856;9.088;2023-10-19T07:30:20;96078.50;;;12.16;100.00
42601;BME280;28229;48.856;9.088;2023-10-19T07:32:52;96085.03;;;12.24;100.00
42601;BME280;28229;48.856;9.088;2023-10-19T07:35:25;96087.16;;;12.22;100.00
42601;BME280;28229;48.856;9.088;2023-10-19T07:37:56;96081.56;;;12.28;100.00
42601;BME280;28229;48.856;9.088;2023-10-19T07:40:25;96080.47;;;12.34;100.00
42601;BME280;28229;48.856;9.088;2023-10-19T07:42:51;96086.22;;;12.42;100.00
42601;BME280;28229;48.856;9.088;2023-10-19T07:45:19;96077.50;;;12.46;100.00
42601;BME280;28229;48.856;9.088;2023-10-19T07:47:46;96088.25;;;12.55;100.00
42601;BME280;28229;48.856;9.088;2023-10-19T07:50:12;96079.47;;;12.65;100.00
42601;BME280;28229;48.856;9.088;2023-10-19T07:52:42;96081.28;;;12.69;100.00
42601;BME280;28229;48.856;9.088;2023-10-19T07:55:10;96065.44;;;12.74;100.00
42601;BME280;28229;48.856;9.088;2023-10-19T07:57:36;96061.66;;;12.81;100.00
42601;BME280;28229;48.856;9.088;2023-10-19T08:00:02;96073.47;;;12.88;100.00
42601;BME280;28229;48.856;9.088;2023-10-19T08:02:30;96068.94;;;12.94;100.00
42601;BME280;28229;48.856;9.088;2023-10-19T08:04:57;96063.06;;;13.02;100.00
42601;BME280;28229;48.856;9.088;2023-10-19T08:07:23;96068.28;;;13.07;100.00
42601;BME280;28229;48.856;9.088;2023-10-19T08:09:52;96059.19;;;13.19;100.00
42601;BME280;28229;48.856;9.088;2023-10-19T08:12:18;96059.34;;;13.32;100.00
42601;BME280;28229;48.856;9.088;2023-10-19T08:14:45;96061.34;;;13.46;100.00
42601;BME280;28229;48.856;9.088;2023-10-19T08:17:12;96062.97;;;13.66;100.00
42601;BME280;28229;48.856;9.088;2023-10-19T08:19:41;96070.28;;;13.93;100.00
42601;BME280;28229;48.856;9.088;2023-10-19T08:22:07;96072.13;;;14.12;100.00
42601;BME280;28229;48.856;9.088;2023-10-19T08:24:33;96074.59;;;14.27;100.00
42601;BME280;28229;48.856;9.088;2023-10-19T08:27:01;96067.84;;;14.54;100.00
42601;BME280;28229;48.856;9.088;2023-10-19T08:29:31;96068.28;;;14.80;100.00
42601;BME280;28229;48.856;9.088;2023-10-19T08:32:00;96067.34;;;15.03;100.00
42601;BME280;28229;48.856;9.088;2023-10-19T08:34:26;96075.59;;;15.16;100.00
42601;BME280;28229;48.856;9.088;2023-10-19T08:36:53;96066.38;;;15.27;100.00
42601;BME280;28229;48.856;9.088;2023-10-19T08:39:19;96069.63;;;15.38;100.00
42601;BME280;28229;48.856;9.088;2023-10-19T08:41:46;96060.53;;;15.44;100.00
42601;BME280;28229;48.856;9.088;2023-10-19T08:44:14;96064.16;;;15.48;100.00
42601;BME280;28229;48.856;9.088;2023-10-19T08:50:16;96057.69;;;15.54;100.00
42601;BME280;28229;48.856;9.088;2023-10-19T08:52:45;96046.78;;;15.56;99.63
42601;BME280;28229;48.856;9.088;2023-10-19T08:55:11;96046.13;;;15.78;100.00
42601;BME280;28229;48.856;9.088;2023-10-19T08:57:39;96044.59;;;15.99;100.00
42601;BME280;28229;48.856;9.088;2023-10-19T09:00:09;96049.97;;;16.22;100.00
42601;BME280;28229;48.856;9.088;2023-10-19T09:02:35;96048.47;;;16.52;100.00
42601;BME280;28229;48.856;9.088;2023-10-19T09:05:08;96046.47;;;16.58;94.67
42601;BME280;28229;48.856;9.088;2023-10-19T09:07:34;96035.94;;;16.67;91.41
42601;BME280;28229;48.856;9.088;2023-10-19T09:10:00;96041.41;;;16.70;91.18
42601;BME280;28229;48.856;9.088;2023-10-19T09:12:27;96036.59;;;16.72;91.10
42601;BME280;28229;48.856;9.088;2023-10-19T09:14:54;96045.50;;;16.77;89.95
42601;BME280;28229;48.856;9.088;2023-10-19T09:17:29;96043.03;;;16.80;89.61
42601;BME280;28229;48.856;9.088;2023-10-19T09:19:59;96044.50;;;16.86;88.15
42601;BME280;28229;48.856;9.088;2023-10-19T09:22:35;96034.88;;;16.99;89.22
42601;BME280;28229;48.856;9.088;2023-10-19T09:25:11;96038.50;;;17.03;87.18
42601;BME280;28229;48.856;9.088;2023-10-19T09:27:40;96032.53;;;16.98;88.47
42601;BME280;28229;48.856;9.088;2023-10-19T09:30:08;96032.09;;;17.04;86.51
42601;BME280;28229;48.856;9.088;2023-10-19T09:32:35;96033.66;;;17.05;87.42
42601;BME280;28229;48.856;9.088;2023-10-19T09:35:02;96031.31;;;17.04;87.25
42601;BME280;28229;48.856;9.088;2023-10-19T09:37:29;96034.72;;;16.96;85.45
42601;BME280;28229;48.856;9.088;2023-10-19T09:39:57;96017.06;;;17.00;86.23
42601;BME280;28229;48.856;9.088;2023-10-19T09:42:33;96023.38;;;17.12;84.71
42601;BME280;28229;48.856;9.088;2023-10-19T09:45:00;96023.03;;;17.05;84.47
42601;BME280;28229;48.856;9.088;2023-10-19T09:47:50;96016.13;;;16.96;83.75
42601;BME280;28229;48.856;9.088;2023-10-19T09:50:55;96014.25;;;16.96;84.67
42601;BME280;28229;48.856;9.088;2023-10-19T09:53:25;96016.16;;;17.04;83.97
42601;BME280;28229;48.856;9.088;2023-10-19T09:55:59;96013.56;;;17.13;83.47
42601;BME280;28229;48.856;9.088;2023-10-19T09:58:29;96005.13;;;17.20;83.27
42601;BME280;28229;48.856;9.088;2023-10-19T10:00:57;96000.63;;;17.29;83.88
42601;BME280;28229;48.856;9.088;2023-10-19T10:06:12;96013.91;;;17.29;84.84
42601;BME280;28229;48.856;9.088;2023-10-19T10:08:43;96009.69;;;17.28;84.15
42601;BME280;28229;48.856;9.088;2023-10-19T10:11:24;96013.75;;;17.34;83.57
42601;BME280;28229;48.856;9.088;2023-10-19T10:13:50;96008.63;;;17.38;84.16
42601;BME280;28229;48.856;9.088;2023-10-19T10:16:18;96006.75;;;17.38;84.04
42601;BME280;28229;48.856;9.088;2023-10-19T10:18:46;96012.56;;;17.40;84.83
42601;BME280;28229;48.856;9.088;2023-10-19T10:23:43;96013.16;;;17.37;83.25
42601;BME280;28229;48.856;9.088;2023-10-19T10:26:14;96001.91;;;17.40;82.83
42601;BME280;28229;48.856;9.088;2023-10-19T10:28:41;95990.03;;;17.46;83.42
42601;BME280;28229;48.856;9.088;2023-10-19T10:31:15;96004.31;;;17.50;82.54
42601;BME280;28229;48.856;9.088;2023-10-19T10:33:46;95993.50;;;17.56;82.70
42601;BME280;28229;48.856;9.088;2023-10-19T10:36:14;95998.06;;;17.64;82.53
42601;BME280;28229;48.856;9.088;2023-10-19T10:38:43;95994.94;;;17.70;81.34
42601;BME280;28229;48.856;9.088;2023-10-19T10:41:10;95994.66;;;17.72;81.29
42601;BME280;28229;48.856;9.088;2023-10-19T10:43:53;95996.03;;;17.78;81.12
42601;BME280;28229;48.856;9.088;2023-10-19T10:46:21;95997.34;;;17.89;82.03
42601;BME280;28229;48.856;9.088;2023-10-19T10:48:47;96000.81;;;17.99;80.71
42601;BME280;28229;48.856;9.088;2023-10-19T10:51:21;95995.94;;;18.01;80.29
42601;BME280;28229;48.856;9.088;2023-10-19T10:53:49;96008.16;;;18.02;80.75
42601;BME280;28229;48.856;9.088;2023-10-19T10:56:16;96006.13;;;18.07;82.32
42601;BME280;28229;48.856;9.088;2023-10-19T10:58:43;96000.47;;;18.09;82.62
42601;BME280;28229;48.856;9.088;2023-10-19T11:01:10;96004.25;;;18.08;80.91
42601;BME280;28229;48.856;9.088;2023-10-19T11:03:37;96015.66;;;18.00;81.04
42601;BME280;28229;48.856;9.088;2023-10-19T11:06:07;96018.94;;;17.88;80.47
42601;BME280;28229;48.856;9.088;2023-10-19T11:08:35;96016.72;;;17.81;80.91
42601;BME280;28229;48.856;9.088;2023-10-19T11:11:07;96007.13;;;17.72;80.32
42601;BME280;28229;48.856;9.088;2023-10-19T11:13:38;96008.84;;;17.67;80.31
42601;BME280;28229;48.856;9.088;2023-10-19T11:16:06;96004.13;;;17.56;81.79
42601;BME280;28229;48.856;9.088;2023-10-19T11:18:37;95998.47;;;17.48;82.51
42601;BME280;28229;48.856;9.088;2023-10-19T11:21:14;95999.72;;;17.42;83.37
42601;BME280;28229;48.856;9.088;2023-10-19T11:23:45;96005.66;;;17.39;83.81
42601;BME280;28229;48.856;9.088;2023-10-19T11:26:13;96008.94;;;17.36;85.53
42601;BME280;28229;48.856;9.088;2023-10-19T11:28:40;96000.59;;;17.20;86.61
42601;BME280;28229;48.856;9.088;2023-10-19T11:31:18;96001.34;;;17.12;88.19
42601;BME280;28229;48.856;9.088;2023-10-19T11:33:46;95999.75;;;17.11;88.91
42601;BME280;28229;48.856;9.088;2023-10-19T11:36:15;95994.28;;;17.07;90.29
42601;BME280;28229;48.856;9.088;2023-10-19T11:38:46;96003.00;;;16.99;92.25
42601;BME280;28229;48.856;9.088;2023-10-19T11:41:14;95997.19;;;16.88;92.98
42601;BME280;28229;48.856;9.088;2023-10-19T11:43:42;95998.19;;;16.79;94.59
42601;BME280;28229;48.856;9.088;2023-10-19T11:46:09;95993.13;;;16.68;95.99
42601;BME280;28229;48.856;9.088;2023-10-19T11:48:36;96003.38;;;16.61;96.72
42601;BME280;28229;48.856;9.088;2023-10-19T11:51:03;95988.16;;;16.44;98.24
42601;BME280;28229;48.856;9.088;2023-10-19T11:53:34;95986.84;;;16.33;100.00
42601;BME280;28229;48.856;9.088;2023-10-19T11:56:08;95972.28;;;16.30;100.00
42601;BME280;28229;48.856;9.088;2023-10-19T11:58:36;95952.16;;;16.29;100.00
42601;BME280;28229;48.856;9.088;2023-10-19T12:01:13;95941.41;;;16.34;100.00
42601;BME280;28229;48.856;9.088;2023-10-19T12:03:42;95936.59;;;16.36;100.00
42601;BME280;28229;48.856;9.088;2023-10-19T12:06:13;95934.88;;;16.41;100.00
42601;BME280;28229;48.856;9.088;2023-10-19T12:08:45;95925.66;;;16.38;100.00
42601;BME280;28229;48.856;9.088;2023-10-19T12:11:11;95925.66;;;16.38;100.00
42601;BME280;28229;48.856;9.088;2023-10-19T12:13:48;95938.03;;;16.20;100.00
42601;BME280;28229;48.856;9.088;2023-10-19T12:16:15;95928.75;;;16.09;100.00
42601;BME280;28229;48.856;9.088;2023-10-19T12:18:42;95921.16;;;16.16;100.00
42601;BME280;28229;48.856;9.088;2023-10-19T12:21:09;95917.13;;;16.18;100.00
42601;BME280;28229;48.856;9.088;2023-10-19T12:23:39;95917.44;;;16.17;100.00
42601;BME280;28229;48.856;9.088;2023-10-19T12:26:06;95917.91;;;16.19;100.00
42601;BME280;28229;48.856;9.088;2023-10-19T12:28:37;95906.34;;;16.15;100.00
42601;BME280;28229;48.856;9.088;2023-10-19T12:31:04;95910.06;;;16.14;100.00
42601;BME280;28229;48.856;9.088;2023-10-19T12:33:37;95892.09;;;16.11;100.00
42601;BME280;28229;48.856;9.088;2023-10-19T12:36:05;95899.50;;;16.00;100.00
42601;BME280;28229;48.856;9.088;2023-10-19T12:38:50;95890.91;;;15.94;100.00
42601;BME280;28229;48.856;9.088;2023-10-19T12:41:18;95894.03;;;15.96;100.00
42601;BME280;28229;48.856;9.088;2023-10-19T12:43:44;95901.31;;;15.91;100.00
42601;BME280;28229;48.856;9.088;2023-10-19T12:46:13;95902.72;;;15.88;100.00
42601;BME280;28229;48.856;9.088;2023-10-19T12:48:40;95911.94;;;15.91;100.00
42601;BME280;28229;48.856;9.088;2023-10-19T12:51:06;95923.31;;;15.91;100.00
42601;BME280;28229;48.856;9.088;2023-10-19T12:53:33;95924.91;;;15.92;100.00
42601;BME280;28229;48.856;9.088;2023-10-19T12:55:59;95922.25;;;15.92;100.00
42601;BME280;28229;48.856;9.088;2023-10-19T12:58:25;95919.00;;;15.95;100.00
42601;BME280;28229;48.856;9.088;2023-10-19T13:00:55;95928.97;;;15.98;100.00
42601;BME280;28229;48.856;9.088;2023-10-19T13:03:22;95924.31;;;15.95;100.00
42601;BME280;28229;48.856;9.088;2023-10-19T13:05:49;95920.78;;;15.86;100.00
42601;BME280;28229;48.856;9.088;2023-10-19T13:08:15;95919.22;;;15.85;100.00
42601;BME280;28229;48.856;9.088;2023-10-19T13:10:43;95929.84;;;15.71;100.00
42601;BME280;28229;48.856;9.088;2023-10-19T13:13:11;95921.50;;;15.78;100.00
42601;BME280;28229;48.856;9.088;2023-10-19T13:15:39;95928.88;;;15.81;100.00
42601;BME280;28229;48.856;9.088;2023-10-19T13:18:07;95925.31;;;15.72;100.00
42601;BME280;28229;48.856;9.088;2023-10-19T13:20:36;95906.19;;;15.75;100.00